createdAt,value
2023-02-12T00:01:35.063Z,1.70
2023-02-12T00:04:04.898Z,1.70
2023-02-12T00:06:33.213Z,1.70
2023-02-12T00:09:01.422Z,1.70
2023-02-12T00:11:30.710Z,1.70
2023-02-12T00:13:59.693Z,1.70
2023-02-12T00:16:29.716Z,1.60
2023-02-12T00:18:59.127Z,1.70
2023-02-12T00:21:29.388Z,1.70
2023-02-12T00:23:58.235Z,1.70
2023-02-12T00:26:26.628Z,1.60
2023-02-12T00:28:55.984Z,1.70
2023-02-12T00:31:26.912Z,1.60
2023-02-12T00:33:59.313Z,1.60
2023-02-12T00:36:31.950Z,1.60
2023-02-12T00:39:01.802Z,1.60
2023-02-12T00:41:30.378Z,1.50
2023-02-12T00:43:58.761Z,1.50
2023-02-12T00:46:27.065Z,1.50
2023-02-12T00:48:55.307Z,1.50
2023-02-12T00:51:24.286Z,1.50
2023-02-12T00:53:54.008Z,1.40
2023-02-12T00:56:22.334Z,1.50
2023-02-12T00:58:50.586Z,1.50
2023-02-12T01:01:19.563Z,1.40
2023-02-12T01:03:47.948Z,1.40
2023-02-12T01:06:16.210Z,1.40
2023-02-12T01:08:44.424Z,1.40
2023-02-12T01:11:14.821Z,1.40
2023-02-12T01:13:43.091Z,1.30
2023-02-12T01:16:16.766Z,1.40
2023-02-12T01:18:46.271Z,1.30
2023-02-12T01:21:17.545Z,1.30
2023-02-12T01:23:46.197Z,1.30
2023-02-12T01:26:16.929Z,1.30
2023-02-12T01:28:49.512Z,1.30
2023-02-12T01:31:19.201Z,1.30
2023-02-12T01:33:49.839Z,1.30
2023-02-12T01:36:18.178Z,1.30
2023-02-12T01:38:48.995Z,1.40
2023-02-12T01:41:21.178Z,1.40
2023-02-12T01:44:08.540Z,1.30
2023-02-12T01:46:36.998Z,1.30
2023-02-12T01:49:08.446Z,1.40
2023-02-12T01:51:37.631Z,1.20
2023-02-12T01:54:09.751Z,1.30
2023-02-12T01:56:40.719Z,1.30
2023-02-12T01:59:09.618Z,1.30
2023-02-12T02:01:38.085Z,1.30
2023-02-12T02:04:11.167Z,1.20
2023-02-12T02:06:46.268Z,1.20
2023-02-12T02:09:17.383Z,1.20
2023-02-12T02:12:13.201Z,1.20
2023-02-12T02:14:42.538Z,1.30
2023-02-12T02:17:43.562Z,1.30
2023-02-12T02:20:43.927Z,1.20
2023-02-12T02:23:47.236Z,1.20
2023-02-12T02:26:29.344Z,1.20
2023-02-12T02:29:15.896Z,1.20
2023-02-12T02:31:47.885Z,1.30
2023-02-12T02:34:25.213Z,1.30
2023-02-12T02:37:02.908Z,1.30
2023-02-12T02:39:38.941Z,1.20
2023-02-12T02:42:12.211Z,1.20
2023-02-12T02:44:47.983Z,1.20
2023-02-12T02:47:20.469Z,1.20
2023-02-12T02:49:52.930Z,1.20
2023-02-12T02:52:27.532Z,1.20
2023-02-12T02:54:59.783Z,1.10
2023-02-12T02:57:37.179Z,1.10
2023-02-12T03:00:11.378Z,1.10
2023-02-12T03:02:45.486Z,1.10
2023-02-12T03:05:20.953Z,1.10
2023-02-12T03:07:53.909Z,1.10
2023-02-12T03:10:26.601Z,1.10
2023-02-12T03:13:00.152Z,1.20
2023-02-12T03:15:34.185Z,1.10
2023-02-12T03:18:06.628Z,1.00
2023-02-12T03:20:41.161Z,1.10
2023-02-12T03:23:14.117Z,1.00
2023-02-12T03:25:51.037Z,1.00
2023-02-12T03:28:24.022Z,1.00
2023-02-12T03:31:00.304Z,1.00
2023-02-12T03:33:37.063Z,1.10
2023-02-12T03:36:14.171Z,1.00
2023-02-12T03:38:46.995Z,1.00
2023-02-12T03:41:20.881Z,1.00
2023-02-12T03:43:53.834Z,1.10
2023-02-12T03:46:27.037Z,1.00
2023-02-12T03:49:02.557Z,1.00
2023-02-12T03:51:36.111Z,1.00
2023-02-12T03:54:06.216Z,1.00
2023-02-12T03:56:39.874Z,1.00
2023-02-12T03:59:08.445Z,0.90
2023-02-12T04:01:37.702Z,0.90
2023-02-12T04:04:08.881Z,0.90
2023-02-12T04:06:37.461Z,0.90
2023-02-12T04:09:08.383Z,0.90
2023-02-12T04:11:48.557Z,0.90
2023-02-12T04:14:26.126Z,0.90
2023-02-12T04:17:01.309Z,0.80
2023-02-12T04:19:39.853Z,0.80
2023-02-12T04:22:18.585Z,0.80
2023-02-12T04:24:59.393Z,0.70
2023-02-12T04:27:36.122Z,0.80
2023-02-12T04:30:09.665Z,0.70
2023-02-12T04:32:42.915Z,0.70
2023-02-12T04:35:21.188Z,0.70
2023-02-12T04:37:53.326Z,0.70
2023-02-12T04:40:22.825Z,0.80
2023-02-12T04:42:53.661Z,0.70
2023-02-12T04:45:25.293Z,0.70
2023-02-12T04:47:53.765Z,0.70
2023-02-12T04:50:23.682Z,0.60
2023-02-12T04:52:52.007Z,0.70
2023-02-12T04:55:20.746Z,0.60
2023-02-12T04:57:49.072Z,0.60
2023-02-12T05:00:18.253Z,0.60
2023-02-12T05:02:46.527Z,0.60
2023-02-12T05:05:14.826Z,0.60
2023-02-12T05:07:44.425Z,0.60
2023-02-12T05:10:13.025Z,0.60
2023-02-12T05:12:41.463Z,0.70
2023-02-12T05:15:10.489Z,0.50
2023-02-12T05:17:38.886Z,0.60
2023-02-12T05:20:08.311Z,0.60
2023-02-12T05:22:36.560Z,0.50
2023-02-12T05:25:06.918Z,0.50
2023-02-12T05:27:35.100Z,0.50
2023-02-12T05:30:03.765Z,0.50
2023-02-12T05:32:32.087Z,0.40
2023-02-12T05:35:00.328Z,0.40
2023-02-12T05:37:28.528Z,0.40
2023-02-12T05:39:56.704Z,0.40
2023-02-12T05:42:26.354Z,0.40
2023-02-12T05:44:54.597Z,0.30
2023-02-12T05:47:22.824Z,0.30
2023-02-12T05:49:51.038Z,0.30
2023-02-12T05:52:19.198Z,0.20
2023-02-12T05:54:50.767Z,0.20
2023-02-12T05:57:19.117Z,0.30
2023-02-12T05:59:48.699Z,0.10
2023-02-12T06:02:16.860Z,0.20
2023-02-12T06:04:47.516Z,0.10
2023-02-12T06:07:16.702Z,0.10
2023-02-12T06:09:44.991Z,0.10
2023-02-12T06:12:13.151Z,0.00
2023-02-12T06:14:42.656Z,0.00
2023-02-12T06:17:12.300Z,-0.10
2023-02-12T06:19:40.591Z,-0.10
2023-02-12T06:22:08.850Z,-0.20
2023-02-12T06:24:37.243Z,-0.20
2023-02-12T06:27:05.498Z,-0.20
2023-02-12T06:29:33.721Z,-0.20
2023-02-12T06:32:02.100Z,-0.20
2023-02-12T06:34:31.837Z,-0.10
2023-02-12T06:37:00.086Z,-0.10
2023-02-12T06:39:28.294Z,-0.20
2023-02-12T06:41:56.477Z,-0.20
2023-02-12T06:44:25.225Z,-0.20
2023-02-12T06:46:53.719Z,-0.20
2023-02-12T06:49:22.027Z,-0.30
2023-02-12T06:51:51.591Z,-0.40
2023-02-12T06:54:20.058Z,-0.50
2023-02-12T06:56:48.214Z,-0.50
2023-02-12T06:59:17.666Z,-0.60
2023-02-12T07:01:46.338Z,-0.60
2023-02-12T07:04:14.638Z,-0.70
2023-02-12T07:06:42.921Z,-0.70
2023-02-12T07:09:12.551Z,-0.70
2023-02-12T07:11:40.899Z,-0.70
2023-02-12T07:14:09.387Z,-0.80
2023-02-12T07:16:37.592Z,-0.90
2023-02-12T07:19:05.780Z,-0.80
2023-02-12T07:21:34.131Z,-0.70
2023-02-12T07:24:02.338Z,-0.60
2023-02-12T07:26:31.904Z,-0.60
2023-02-12T07:29:00.198Z,-0.50
2023-02-12T07:31:28.462Z,-0.40
2023-02-12T07:33:57.842Z,-0.30
2023-02-12T07:36:28.210Z,-0.20
2023-02-12T07:38:57.585Z,-0.10
2023-02-12T07:41:27.704Z,0.00
2023-02-12T07:43:58.768Z,0.10
2023-02-12T07:46:30.622Z,0.50
2023-02-12T07:48:59.990Z,1.10
2023-02-12T07:51:29.369Z,2.10
2023-02-12T07:53:57.847Z,2.80
2023-02-12T07:56:30.876Z,3.50
2023-02-12T07:59:02.938Z,3.80
2023-02-12T08:01:33.477Z,3.80
2023-02-12T08:04:03.968Z,3.40
2023-02-12T08:06:35.193Z,3.10
2023-02-12T08:09:07.091Z,3.00
2023-02-12T08:11:35.726Z,2.70
2023-02-12T08:14:05.917Z,2.50
2023-02-12T08:16:38.160Z,2.50
2023-02-12T08:19:17.558Z,2.50
2023-02-12T08:21:50.498Z,2.50
2023-02-12T08:24:19.042Z,2.40
2023-02-12T08:26:47.298Z,2.50
2023-02-12T08:29:18.822Z,2.40
2023-02-12T08:31:48.715Z,2.40
2023-02-12T08:34:19.754Z,2.20
2023-02-12T08:36:49.747Z,2.00
2023-02-12T08:39:18.448Z,2.00
2023-02-12T08:41:47.457Z,2.00
2023-02-12T08:44:17.949Z,1.90
2023-02-12T08:46:48.169Z,1.90
2023-02-12T08:49:18.934Z,1.90
2023-02-12T08:51:49.394Z,1.90
2023-02-12T08:54:19.882Z,1.90
2023-02-12T08:56:48.430Z,1.90
2023-02-12T08:59:18.554Z,2.00
2023-02-12T09:01:46.961Z,2.00
2023-02-12T09:04:18.127Z,2.00
2023-02-12T09:06:47.589Z,2.00
2023-02-12T09:09:16.351Z,2.10
2023-02-12T09:11:45.188Z,2.20
2023-02-12T09:14:16.084Z,2.30
2023-02-12T09:16:46.438Z,2.30
2023-02-12T09:19:15.570Z,2.40
2023-02-12T09:21:43.898Z,2.30
2023-02-12T09:24:12.288Z,2.40
2023-02-12T09:26:41.458Z,2.40
2023-02-12T09:29:09.729Z,2.50
2023-02-12T09:31:38.054Z,2.40
2023-02-12T09:34:08.366Z,2.50
2023-02-12T09:36:37.263Z,2.40
2023-02-12T09:39:05.932Z,2.50
2023-02-12T09:42:26.147Z,2.50
2023-02-12T09:45:03.170Z,2.60
2023-02-12T09:47:37.380Z,2.70
2023-02-12T09:50:24.602Z,2.60
2023-02-12T09:52:53.486Z,2.50
2023-02-12T09:55:25.207Z,2.70
2023-02-12T09:57:54.953Z,2.70
2023-02-12T10:00:28.078Z,2.80
2023-02-12T10:02:56.778Z,2.80
2023-02-12T10:05:30.493Z,2.80
2023-02-12T10:08:16.660Z,2.80
2023-02-12T10:10:52.717Z,2.80
2023-02-12T10:13:32.802Z,2.90
2023-02-12T10:16:11.226Z,2.80
2023-02-12T10:19:09.924Z,2.90
2023-02-12T10:21:53.875Z,3.00
2023-02-12T10:24:35.090Z,3.10
2023-02-12T10:27:10.699Z,3.20
2023-02-12T10:29:42.486Z,3.20
2023-02-12T10:32:18.467Z,3.20
2023-02-12T10:34:47.838Z,3.30
2023-02-12T10:37:27.943Z,3.20
2023-02-12T10:40:00.800Z,3.40
2023-02-12T10:42:39.013Z,3.50
2023-02-12T10:45:14.023Z,3.50
2023-02-12T10:47:42.637Z,3.40
2023-02-12T10:50:21.725Z,3.50
2023-02-12T10:52:55.038Z,3.50
2023-02-12T10:55:29.832Z,3.60
2023-02-12T10:57:59.326Z,3.70
2023-02-12T11:00:32.558Z,3.70
2023-02-12T11:03:04.069Z,3.70
2023-02-12T11:05:35.800Z,3.60
2023-02-12T11:08:06.603Z,3.70
2023-02-12T11:10:39.689Z,3.80
2023-02-12T11:13:23.271Z,3.80
2023-02-12T11:15:52.279Z,3.70
2023-02-12T11:18:26.289Z,3.90
2023-02-12T11:20:58.495Z,4.30
2023-02-12T11:23:30.872Z,4.60
2023-02-12T11:26:02.348Z,5.20
2023-02-12T11:28:32.121Z,5.20
2023-02-12T11:31:02.660Z,5.00
2023-02-12T11:33:34.682Z,5.00
2023-02-12T11:36:07.384Z,5.10
2023-02-12T11:38:40.165Z,5.00
2023-02-12T11:41:22.391Z,5.10
2023-02-12T11:43:52.134Z,4.80
2023-02-12T11:46:23.368Z,4.70
2023-02-12T11:48:53.274Z,4.50
2023-02-12T11:51:25.687Z,4.40
2023-02-12T11:53:58.622Z,4.20
2023-02-12T11:56:42.000Z,4.30
2023-02-12T11:59:26.585Z,4.30
2023-02-12T12:01:58.417Z,4.30
2023-02-12T12:04:28.865Z,4.40
2023-02-12T12:07:02.290Z,4.40
2023-02-12T12:09:40.757Z,4.50
2023-02-12T12:12:17.173Z,4.60
2023-02-12T12:15:07.400Z,4.60
2023-02-12T12:17:59.837Z,4.60
2023-02-12T12:20:31.962Z,4.50
2023-02-12T12:23:04.772Z,4.70
2023-02-12T12:25:40.139Z,4.60
2023-02-12T12:28:22.284Z,4.70
2023-02-12T12:30:58.845Z,4.40
2023-02-12T12:33:44.328Z,4.40
2023-02-12T12:36:42.022Z,4.40
2023-02-12T12:39:19.759Z,4.40
2023-02-12T12:42:29.616Z,4.30
2023-02-12T12:45:15.842Z,4.20
2023-02-12T12:47:58.608Z,4.20
2023-02-12T12:50:50.501Z,4.20
2023-02-12T12:53:39.628Z,4.10
2023-02-12T12:56:20.320Z,4.30
2023-02-12T12:59:06.314Z,4.30
2023-02-12T13:01:54.098Z,4.30
2023-02-12T13:04:52.700Z,4.40
2023-02-12T13:07:37.417Z,4.50
2023-02-12T13:10:20.818Z,4.40
2023-02-12T13:13:09.367Z,4.40
2023-02-12T13:15:47.071Z,4.40
2023-02-12T13:18:22.866Z,4.20
2023-02-12T13:20:57.473Z,4.20
2023-02-12T13:23:34.244Z,4.10
2023-02-12T13:26:08.801Z,4.00
2023-02-12T13:28:41.914Z,4.00
2023-02-12T13:34:06.449Z,3.90
2023-02-12T13:36:38.668Z,3.80
2023-02-12T13:39:16.787Z,3.80
2023-02-12T13:41:54.261Z,3.80
2023-02-12T13:44:32.945Z,3.70
2023-02-12T13:47:10.732Z,3.70
2023-02-12T13:49:46.617Z,3.60
2023-02-12T13:52:22.748Z,3.60
2023-02-12T13:55:00.902Z,3.50
2023-02-12T13:57:29.207Z,3.50
2023-02-12T13:59:58.330Z,3.60
2023-02-12T14:02:43.972Z,3.50
2023-02-12T14:05:27.495Z,3.40
2023-02-12T14:07:58.314Z,3.40
2023-02-12T14:10:30.619Z,3.40
2023-02-12T14:13:12.610Z,3.30
2023-02-12T14:15:44.678Z,3.30
2023-02-12T14:18:36.054Z,3.30
2023-02-12T14:21:38.043Z,3.30
2023-02-12T14:24:40.012Z,3.30
2023-02-12T14:27:21.694Z,3.20
2023-02-12T14:30:26.866Z,3.10
2023-02-12T14:33:13.927Z,3.10
2023-02-12T14:35:44.609Z,3.00
2023-02-12T14:38:58.576Z,2.90
2023-02-12T14:41:44.173Z,2.80
2023-02-12T14:44:47.401Z,2.80
2023-02-12T14:47:53.407Z,2.80
2023-02-12T14:50:27.268Z,2.60
2023-02-12T14:53:04.947Z,2.60
2023-02-12T14:55:35.336Z,2.50
2023-02-12T14:58:07.476Z,2.60
2023-02-12T15:00:41.542Z,2.50
2023-02-12T15:03:25.257Z,2.40
2023-02-12T15:06:02.368Z,2.30
2023-02-12T15:08:38.268Z,2.30
2023-02-12T15:11:15.847Z,2.20
2023-02-12T15:13:55.965Z,2.10
2023-02-12T15:16:33.410Z,2.10
2023-02-12T15:19:06.666Z,2.10
2023-02-12T15:21:35.282Z,2.00
2023-02-12T15:24:07.867Z,2.10
2023-02-12T15:26:41.573Z,2.00
2023-02-12T15:29:21.093Z,2.00
2023-02-12T15:31:54.004Z,1.90
2023-02-12T15:34:25.159Z,1.90
2023-02-12T15:36:53.902Z,1.80
2023-02-12T15:39:25.222Z,1.70
2023-02-12T15:41:53.529Z,1.70
2023-02-12T15:44:28.191Z,1.60
2023-02-12T15:47:02.385Z,1.60
2023-02-12T15:49:34.112Z,1.60
2023-02-12T15:52:07.628Z,1.60
2023-02-12T15:54:37.886Z,1.60
2023-02-12T15:57:13.015Z,1.50
2023-02-12T15:59:42.501Z,1.60
2023-02-12T16:02:21.266Z,1.50
2023-02-12T16:04:49.921Z,1.40
2023-02-12T16:07:19.148Z,1.30
2023-02-12T16:09:51.993Z,1.30
2023-02-12T16:12:23.786Z,1.40
2023-02-12T16:14:54.324Z,1.40
2023-02-12T16:17:27.931Z,1.30
2023-02-12T16:19:58.975Z,1.30
2023-02-12T16:22:33.829Z,1.20
2023-02-12T16:25:05.076Z,1.20
2023-02-12T16:27:35.896Z,1.10
2023-02-12T16:30:08.638Z,1.00
2023-02-12T16:32:39.579Z,0.90
2023-02-12T16:35:25.244Z,0.90
2023-02-12T16:37:56.489Z,0.80
2023-02-12T16:40:30.854Z,0.80
2023-02-12T16:43:24.078Z,0.70
2023-02-12T16:45:53.347Z,0.70
2023-02-12T16:48:27.288Z,0.60
2023-02-12T16:50:57.853Z,0.50
2023-02-12T16:53:47.108Z,0.50
2023-02-12T16:56:21.156Z,0.40
2023-02-12T16:58:51.345Z,0.40
2023-02-12T17:01:25.203Z,0.40
2023-02-12T17:03:54.237Z,0.40
2023-02-12T17:06:24.445Z,0.30
2023-02-12T17:08:52.819Z,0.30
2023-02-12T17:11:23.448Z,0.20
2023-02-12T17:13:53.747Z,0.20
2023-02-12T17:16:31.852Z,0.20
2023-02-12T17:19:00.957Z,0.20
2023-02-12T17:21:31.579Z,0.30
2023-02-12T17:24:00.011Z,0.30
2023-02-12T17:26:29.673Z,0.40
2023-02-12T17:29:05.262Z,0.40
2023-02-12T17:31:33.996Z,0.40
2023-02-12T17:34:02.387Z,0.40
2023-02-12T17:36:30.758Z,0.20
2023-02-12T17:38:59.000Z,0.40
2023-02-12T17:41:27.236Z,0.40
2023-02-12T17:43:56.865Z,0.40
2023-02-12T17:46:27.256Z,0.50
2023-02-12T17:48:55.546Z,0.50
2023-02-12T17:51:24.067Z,0.60
2023-02-12T17:53:52.514Z,0.40
2023-02-12T17:56:22.679Z,0.50
2023-02-12T17:58:51.305Z,0.50
2023-02-12T18:01:22.848Z,0.60
2023-02-12T18:03:53.730Z,0.70
2023-02-12T18:06:25.064Z,0.90
2023-02-12T18:08:53.581Z,1.00
2023-02-12T18:11:22.114Z,1.10
2023-02-12T18:13:54.036Z,1.10
2023-02-12T18:16:25.738Z,1.30
2023-02-12T18:18:54.114Z,1.40
2023-02-12T18:21:22.729Z,1.40
2023-02-12T18:23:50.969Z,1.50
2023-02-12T18:26:20.395Z,1.60
2023-02-12T18:28:48.959Z,1.60
2023-02-12T18:31:19.848Z,1.70
2023-02-12T18:33:49.570Z,1.80
2023-02-12T18:36:19.735Z,1.80
2023-02-12T18:38:50.655Z,1.90
2023-02-12T18:41:20.543Z,1.90
2023-02-12T18:43:49.110Z,1.90
2023-02-12T18:46:19.228Z,2.00
2023-02-12T18:48:49.795Z,1.90
2023-02-12T18:51:21.208Z,1.90
2023-02-12T18:53:49.813Z,2.00
2023-02-12T18:56:18.109Z,2.00
2023-02-12T18:58:46.347Z,2.00
2023-02-12T19:01:16.077Z,2.00
2023-02-12T19:03:44.502Z,2.00
2023-02-12T19:06:14.599Z,2.00
2023-02-12T19:08:43.182Z,2.00
2023-02-12T19:11:14.804Z,2.00
2023-02-12T19:13:44.075Z,2.00
2023-02-12T19:16:14.892Z,2.10
2023-02-12T19:18:43.529Z,2.10
2023-02-12T19:21:14.416Z,2.10
2023-02-12T19:23:43.441Z,2.20
2023-02-12T19:26:14.910Z,2.30
2023-02-12T19:28:43.858Z,2.20
2023-02-12T19:31:15.267Z,2.20
2023-02-12T19:33:44.681Z,2.30
2023-02-12T19:36:17.930Z,2.20
2023-02-12T19:38:48.904Z,2.30
2023-02-12T19:41:19.798Z,2.40
2023-02-12T19:43:48.913Z,2.30
2023-02-12T19:46:19.283Z,2.30
2023-02-12T19:48:49.045Z,2.40
2023-02-12T19:51:21.059Z,2.40
2023-02-12T19:53:50.221Z,2.40
2023-02-12T19:56:18.562Z,2.40
2023-02-12T19:58:47.223Z,2.40
2023-02-12T20:01:18.172Z,2.40
2023-02-12T20:03:47.776Z,2.40
2023-02-12T20:06:20.216Z,2.40
2023-02-12T20:08:48.923Z,2.50
2023-02-12T20:11:19.958Z,2.50
2023-02-12T20:13:49.043Z,2.50
2023-02-12T20:16:19.359Z,2.50
2023-02-12T20:18:49.765Z,2.40
2023-02-12T20:21:21.164Z,2.60
2023-02-12T20:23:49.586Z,2.60
2023-02-12T20:26:19.765Z,2.60
2023-02-12T20:28:49.053Z,2.60
2023-02-12T20:31:19.618Z,2.60
2023-02-12T20:33:48.334Z,2.70
2023-02-12T20:36:16.910Z,2.70
2023-02-12T20:38:46.724Z,2.70
2023-02-12T20:41:15.090Z,2.80
2023-02-12T20:43:43.368Z,2.80
2023-02-12T20:46:14.159Z,2.90
2023-02-12T20:48:42.427Z,2.90
2023-02-12T20:51:12.975Z,2.80
2023-02-12T20:53:41.745Z,2.80
2023-02-12T20:56:13.514Z,2.90
2023-02-12T20:58:45.019Z,2.90
2023-02-12T21:01:15.784Z,2.90
2023-02-12T21:03:44.903Z,3.00
2023-02-12T21:06:13.578Z,3.00
2023-02-12T21:08:43.023Z,3.00
2023-02-12T21:11:15.774Z,3.20
2023-02-12T21:13:58.562Z,3.00
2023-02-12T21:16:32.656Z,3.10
2023-02-12T21:19:01.513Z,3.10
2023-02-12T21:21:32.122Z,3.10
2023-02-12T21:24:01.430Z,3.20
2023-02-12T21:26:33.166Z,3.20
2023-02-12T21:29:03.334Z,3.20
2023-02-12T21:31:34.130Z,3.10
2023-02-12T21:34:04.092Z,3.10
2023-02-12T21:36:35.331Z,3.10
2023-02-12T21:39:10.388Z,3.10
2023-02-12T21:41:41.668Z,3.10
2023-02-12T21:44:13.926Z,3.00
2023-02-12T21:46:42.962Z,3.00
2023-02-12T21:49:12.909Z,3.00
2023-02-12T21:51:42.759Z,3.00
2023-02-12T21:54:13.104Z,2.90
2023-02-12T21:56:47.130Z,3.00
2023-02-12T21:59:16.961Z,3.00
2023-02-12T22:01:48.019Z,3.00
2023-02-12T22:04:20.011Z,3.00
2023-02-12T22:06:51.244Z,3.10
2023-02-12T22:09:21.793Z,3.10
2023-02-12T22:11:53.000Z,3.10
2023-02-12T22:14:23.054Z,3.20
2023-02-12T22:16:51.635Z,3.10
2023-02-12T22:19:20.476Z,3.20
2023-02-12T22:21:52.469Z,3.20
2023-02-12T22:24:21.439Z,3.10
2023-02-12T22:26:51.194Z,3.30
2023-02-12T22:29:20.017Z,3.30
2023-02-12T22:31:49.191Z,3.30
2023-02-12T22:34:19.555Z,3.30
2023-02-12T22:36:48.397Z,3.30
2023-02-12T22:39:17.693Z,3.30
2023-02-12T22:41:46.311Z,3.30
2023-02-12T22:44:18.876Z,3.30
2023-02-12T22:46:48.653Z,3.30
2023-02-12T22:49:17.640Z,3.30
2023-02-12T22:51:46.131Z,3.30
2023-02-12T22:54:15.864Z,3.40
2023-02-12T22:56:44.895Z,3.30
2023-02-12T22:59:15.243Z,3.40
2023-02-12T23:01:44.167Z,3.40
2023-02-12T23:04:15.630Z,3.40
2023-02-12T23:06:44.189Z,3.40
2023-02-12T23:09:14.926Z,3.40
2023-02-12T23:11:43.312Z,3.40
2023-02-12T23:14:11.558Z,3.40
2023-02-12T23:16:41.263Z,3.40
2023-02-12T23:19:12.101Z,3.40
2023-02-12T23:21:40.630Z,3.50
2023-02-12T23:24:09.154Z,3.50
2023-02-12T23:26:37.377Z,3.50
2023-02-12T23:29:05.697Z,3.50
2023-02-12T23:31:34.152Z,3.50
2023-02-12T23:34:03.874Z,3.50
2023-02-12T23:36:33.121Z,3.50
2023-02-12T23:39:01.386Z,3.60
2023-02-12T23:41:29.634Z,3.60
2023-02-12T23:43:57.832Z,3.60
2023-02-12T23:46:26.175Z,3.60
2023-02-12T23:48:54.426Z,3.60
2023-02-12T23:51:24.082Z,3.50
2023-02-12T23:53:52.388Z,3.60
2023-02-12T23:56:20.600Z,3.60
2023-02-12T23:58:48.810Z,3.70
